KCMX

Houghton County Memorial Airport

Hancock, Michigan, USA
METAR KCMX 230253Z AUTO 31007KT 10SM CLR 15/02 A3003 RMK AO2 SLP168 T01500017 53012
Observed Flight Rules
May-23 @ 02:53 UTC (19 minutes ago) Visual Flight Rules
Wind Visibility Clouds
310° at 7 knots 10 miles
  • Clear skies
Temperatures Readings
Current 15°C / 59°F
Dewpoint 2°C / 36°F
Humidity 42%
Altimeter 30.03" Hg
Pressure 1016.8 hPa
Elevation 326
METAR KCMX 230253Z AUTO 31007KT 10SM CLR 15/02 A3003 RMK AO2 SLP168 T01500017 53012
Observed Flight Rules
May-23 @ 02:53 UTC
(19 minutes ago)
VFR
Wind Visibility
310° at 7 knots 10 miles
Clouds
  • Clear skies
Temperature Dewpoint
15°C / 59°F 2°C / 36°F
Humidity Altimeter Pressure
42% 30.03" Hg 1016.8 hPa